Waldoboro, ME

7:04 PM EDT on March 31, 2015 (GMT -0400)
Back Cove Road | | Change Station
CLOSE
Current Station
Personal Weather Station
Location: Waldoboro, ME
Elevation: 26 ft
Nearby Weather Stations

Elev 26 ft 44.02 °N, 69.36 °W | Updated 11 minutes ago

Clear
Clear
39.3 °F
Feels Like 39 °F
N
0.0
Wind Variable Wind from NW
Gusts 1.0 mph

Today
High -- | Low -- °F
--% Chance of Precip.
Yesterday
High -- | Low -- °F
Precip. -- in
6:21 AM 7:02 PM
Waxing Gibbous, 89% visible
Pressure 29.73 in
Visibility 10.0 miles
Clouds Clear
Windchill 39 °F
Dew Point 19 °F
Humidity 44%
Rainfall 0.00 in
Snow Depth Not available.
UV 0 out of 12
Pollen 5.70 out of 12
Air Quality Not available.
Flu Activity Not available.
METAR KIWI 312253Z AUTO 00000KT 10SM CLR 05/M11 A2972 RMK AO2 SLP065 T00501111

More Conditions Fewer Conditions

Pressure 29.73 in
Visibility 10.0 miles
Clouds Clear
Windchill 39 °F
Dew Point 19 °F
Humidity 44%
Rainfall 0.00 in
Snow Depth Not available.
UV 0 out of 12
Pollen 5.70 out of 12
Air Quality Not available.
Flu Activity Not available.
METAR KIWI 312253Z AUTO 00000KT 10SM CLR 05/M11 A2972 RMK AO2 SLP065 T00501111

More Conditions Fewer Conditions

10-Day Weather Forecast

Almanac

Astronomy

Mar. 31, 2015 Rise Set
Actual Time
Civil Twilight
Nautical Twilight
Astronomical Twilight
Moon
Length of Visible Light
Length of Day
Tomorrow will be .
, % of the Moon is Illuminated

Today's Extremes

State Highs State Lows

Community

WunderPhotos

Upload Photos

1,809,870 photos uploaded!

WunderBlogs® & News

Nearby

Air Quality

  Air Quality AQ Index Pollutant
Not available.

Snow Depth

Station Depth Elevation

Earthquake Activity

City Distance Mag. Time & Date
Minimum magnitude displayed is 2.5.

Coastal Water Temperatures

Place Temperature

Stations

Nearby Weather Stations

Station Location Temp. Windchill Dew Point Humidity Wind Precip. Elev Updated Type